Time;durP1;ratioP1;P1;durP2;ratioP2;P2;SDS_P1;SDS_P2;PMS_P1;PMS_P2;Temp;Humidity;BMP_temperature;BMP_pressure;BME280_temperature;BME280_humidity;BME280_pressure;Samples;Min_cycle;Max_cycle;Signal;HPM_P1;HPM_P2
2023/03/27 00:01:26;;;;;;;7.38;2.50;;;6.80;99.90;;;;;;5018811;28;20089;-59
2023/03/27 00:03:54;;;;;;;7.75;1.25;;;6.80;99.90;;;;;;5016568;28;20042;-58
2023/03/27 00:06:23;;;;;;;3.00;1.00;;;6.80;99.90;;;;;;5020852;28;20101;-58
2023/03/27 00:08:50;;;;;;;8.70;1.50;;;6.70;99.90;;;;;;5014554;28;20045;-57
2023/03/27 00:11:18;;;;;;;3.25;1.08;;;6.70;99.90;;;;;;5019486;28;20042;-58
2023/03/27 00:13:44;;;;;;;7.13;1.48;;;6.80;99.90;;;;;;5012901;28;20523;-58
2023/03/27 00:16:17;;;;;;;5.78;1.13;;;6.80;99.90;;;;;;5017890;28;20099;-58
2023/03/27 00:18:45;;;;;;;14.13;1.85;;;6.70;99.90;;;;;;5022643;28;20084;-58
2023/03/27 00:21:12;;;;;;;3.65;1.50;;;6.70;99.90;;;;;;5019705;28;20068;-58
2023/03/27 00:23:39;;;;;;;8.93;1.58;;;6.70;99.90;;;;;;5025977;28;20048;-59
2023/03/27 00:26:06;;;;;;;5.45;1.00;;;6.70;99.90;;;;;;5022300;28;20056;-58
2023/03/27 00:28:34;;;;;;;5.60;1.30;;;6.70;99.90;;;;;;5017783;28;20056;-59
2023/03/27 00:31:01;;;;;;;7.97;1.60;;;6.70;99.90;;;;;;5022923;28;20053;-60
2023/03/27 00:33:28;;;;;;;9.32;1.15;;;6.70;99.90;;;;;;4993620;28;20100;-59
2023/03/27 00:35:54;;;;;;;7.15;1.80;;;6.70;99.90;;;;;;4997630;28;20054;-58
2023/03/27 00:38:21;;;;;;;9.25;1.55;;;6.60;99.90;;;;;;5025038;28;20049;-57
2023/03/27 00:40:49;;;;;;;10.48;1.50;;;6.60;99.90;;;;;;5015543;28;20073;-60
2023/03/27 00:43:25;;;;;;;3.55;1.15;;;6.60;99.90;;;;;;5023822;28;20464;-58
2023/03/27 00:45:55;;;;;;;7.72;1.20;;;6.60;99.90;;;;;;5015643;28;20096;-59
2023/03/27 00:48:23;;;;;;;4.13;1.17;;;6.60;99.90;;;;;;5005686;28;20123;-59
2023/03/27 00:50:50;;;;;;;5.70;1.20;;;6.60;99.90;;;;;;5001334;28;20068;-59
2023/03/27 00:53:20;;;;;;;7.80;1.23;;;6.60;99.90;;;;;;5004129;28;20128;-59
2023/03/27 00:55:48;;;;;;;15.15;1.52;;;6.60;99.90;;;;;;4985987;28;20050;-57
2023/03/27 00:58:20;;;;;;;7.95;1.10;;;6.60;99.90;;;;;;5000692;28;20053;-56
2023/03/27 01:00:51;;;;;;;10.20;1.52;;;6.60;99.90;;;;;;4999100;28;20056;-58
2023/03/27 01:03:18;;;;;;;6.13;0.90;;;6.60;99.90;;;;;;5001265;28;20076;-58
2023/03/27 01:05:45;;;;;;;9.88;1.13;;;6.60;99.90;;;;;;4987506;28;20096;-56
2023/03/27 01:08:12;;;;;;;6.40;1.20;;;6.50;99.90;;;;;;5002268;28;20085;-57
2023/03/27 01:11:01;;;;;;;8.57;1.20;;;6.50;99.90;;;;;;4667988;28;9999955;-56
2023/03/27 01:13:44;;;;;;;11.00;1.30;;;6.60;99.90;;;;;;5003676;28;20045;-57
2023/03/27 01:16:40;;;;;;;6.18;2.08;;;6.50;99.90;;;;;;4998457;28;20046;-58
2023/03/27 01:19:29;;;;;;;8.27;1.23;;;6.50;99.90;;;;;;4983829;28;20059;-58
2023/03/27 01:22:05;;;;;;;6.88;0.82;;;6.50;99.90;;;;;;5018477;28;20136;-56
2023/03/27 01:25:09;;;;;;;9.85;1.50;;;6.50;99.90;;;;;;5014056;28;20042;-58
2023/03/27 01:28:01;;;;;;;11.00;1.30;;;6.50;99.90;;;;;;4999159;28;20046;-56
2023/03/27 01:30:30;;;;;;;6.38;1.10;;;6.40;99.90;;;;;;5011110;28;20069;-57
2023/03/27 01:33:27;;;;;;;5.35;1.13;;;6.40;99.90;;;;;;5002015;28;20060;-57
2023/03/27 01:36:19;;;;;;;4.75;0.88;;;6.40;99.90;;;;;;5010694;28;20047;-57
2023/03/27 01:39:08;;;;;;;5.63;0.95;;;6.40;99.90;;;;;;5020330;28;20491;-57
2023/03/27 01:41:39;;;;;;;3.97;1.27;;;6.40;99.90;;;;;;4994981;28;20491;-55
2023/03/27 01:44:12;;;;;;;3.85;1.05;;;6.40;99.90;;;;;;5001677;28;20125;-57
2023/03/27 01:47:08;;;;;;;6.00;0.98;;;6.40;99.90;;;;;;5011720;28;20076;-57
2023/03/27 01:49:40;;;;;;;7.45;1.13;;;6.40;99.90;;;;;;4995203;28;20501;-59
2023/03/27 01:52:11;;;;;;;10.65;1.75;;;6.40;99.90;;;;;;4988717;28;20124;-58
2023/03/27 01:54:42;;;;;;;9.75;3.65;;;6.40;99.90;;;;;;5001512;28;20133;-58
2023/03/27 01:57:24;;;;;;;10.50;1.30;;;6.40;99.90;;;;;;4978646;28;20064;-56
2023/03/27 01:59:57;;;;;;;3.42;1.40;;;6.40;99.90;;;;;;5008058;28;20148;-57
2023/03/27 02:02:50;;;;;;;12.07;1.13;;;6.40;99.90;;;;;;4993684;28;20045;-58
2023/03/27 02:05:30;;;;;;;5.75;1.15;;;6.40;99.90;;;;;;4984033;28;20045;-60
2023/03/27 02:08:29;;;;;;;4.72;1.23;;;6.40;99.90;;;;;;4988949;28;20049;-57
2023/03/27 02:10:57;;;;;;;9.48;1.30;;;6.30;99.90;;;;;;5002176;28;20045;-58
2023/03/27 02:13:33;;;;;;;6.90;1.45;;;6.30;99.90;;;;;;5018916;28;20452;-57
2023/03/27 02:16:00;;;;;;;7.47;1.52;;;6.30;99.90;;;;;;4985899;28;20050;-57
2023/03/27 02:18:35;;;;;;;6.72;1.23;;;6.30;99.90;;;;;;5001505;28;20096;-58
2023/03/27 02:21:02;;;;;;;9.82;1.63;;;6.30;99.90;;;;;;4982716;28;20163;-58
2023/03/27 02:23:29;;;;;;;7.78;1.40;;;6.30;99.90;;;;;;4998106;28;20096;-56
2023/03/27 02:25:56;;;;;;;13.38;1.80;;;6.20;99.90;;;;;;5016451;28;20049;-58
2023/03/27 02:28:33;;;;;;;6.15;1.38;;;6.20;99.90;;;;;;4988554;28;20261;-58
2023/03/27 02:31:30;;;;;;;5.22;1.15;;;6.20;99.90;;;;;;4998780;28;20428;-58
2023/03/27 02:34:27;;;;;;;3.75;1.35;;;6.20;99.90;;;;;;5015809;28;20145;-58
2023/03/27 02:37:02;;;;;;;4.18;1.70;;;6.20;99.90;;;;;;4995922;28;20054;-58
2023/03/27 02:39:37;;;;;;;9.88;2.78;;;6.20;99.90;;;;;;5002867;28;20547;-57
2023/03/27 02:42:41;;;;;;;10.40;1.33;;;6.20;99.90;;;;;;4995949;28;20046;-57
2023/03/27 02:45:14;;;;;;;15.02;1.30;;;6.20;99.90;;;;;;4982242;28;20046;-58
2023/03/27 02:47:46;;;;;;;7.45;1.23;;;6.10;99.90;;;;;;5006265;28;20393;-59
2023/03/27 02:50:16;;;;;;;5.15;1.50;;;6.10;99.90;;;;;;5002380;28;20128;-59
2023/03/27 02:52:46;;;;;;;8.00;1.45;;;6.10;99.90;;;;;;4994113;28;20515;-58
2023/03/27 02:55:20;;;;;;;2.88;1.13;;;6.10;99.90;;;;;;4996596;28;20631;-58
2023/03/27 02:57:50;;;;;;;12.68;1.52;;;6.10;99.90;;;;;;5002320;28;20045;-58
2023/03/27 03:00:27;;;;;;;10.73;1.65;;;6.10;99.90;;;;;;4984656;28;20049;-58
2023/03/27 03:02:59;;;;;;;7.18;1.27;;;6.10;99.90;;;;;;5003812;28;20057;-58
2023/03/27 03:05:26;;;;;;;4.82;1.27;;;6.10;99.90;;;;;;4979955;28;20120;-58
2023/03/27 03:07:53;;;;;;;6.60;1.30;;;6.10;99.90;;;;;;5018835;28;20132;-57
2023/03/27 03:10:20;;;;;;;3.78;1.85;;;6.00;99.90;;;;;;5016325;28;20042;-59
2023/03/27 03:12:47;;;;;;;6.63;1.20;;;6.00;99.90;;;;;;5000004;28;20136;-58
2023/03/27 03:15:14;;;;;;;8.00;1.30;;;6.00;99.90;;;;;;5016882;28;20144;-58
2023/03/27 03:17:40;;;;;;;8.23;1.20;;;6.00;99.90;;;;;;5018025;28;20049;-57
2023/03/27 03:20:08;;;;;;;5.53;1.20;;;6.00;99.90;;;;;;5022228;28;20045;-58
2023/03/27 03:22:38;;;;;;;3.50;1.30;;;6.10;99.90;;;;;;5002986;28;20054;-57
2023/03/27 03:25:06;;;;;;;8.18;1.33;;;6.00;99.90;;;;;;5014787;28;20056;-58
2023/03/27 03:27:33;;;;;;;11.25;1.80;;;6.00;99.90;;;;;;5022065;28;20046;-53
2023/03/27 03:30:00;;;;;;;19.95;3.60;;;6.00;99.90;;;;;;5013895;28;20046;-56
2023/03/27 03:32:26;;;;;;;5.03;1.13;;;6.00;99.90;;;;;;5017333;28;20052;-57
2023/03/27 03:34:55;;;;;;;12.27;3.65;;;6.00;99.90;;;;;;5013241;28;20141;-57
2023/03/27 03:37:27;;;;;;;7.30;1.25;;;6.00;99.90;;;;;;5016615;28;20053;-52
2023/03/27 03:39:54;;;;;;;3.92;1.10;;;6.00;99.90;;;;;;5026013;28;20060;-57
2023/03/27 03:42:21;;;;;;;4.35;1.33;;;6.00;99.90;;;;;;5016032;28;20050;-56
2023/03/27 03:44:49;;;;;;;10.73;1.77;;;6.00;99.90;;;;;;5027777;28;20096;-59
2023/03/27 03:47:16;;;;;;;12.35;2.55;;;6.00;99.90;;;;;;5023483;28;20089;-56
2023/03/27 03:49:43;;;;;;;4.07;1.23;;;6.00;99.90;;;;;;5013788;28;20400;-57
2023/03/27 03:52:10;;;;;;;4.95;1.13;;;6.00;99.90;;;;;;4999489;28;20049;-57
2023/03/27 03:54:37;;;;;;;7.20;1.30;;;6.00;99.90;;;;;;5024898;28;20443;-57
2023/03/27 03:57:04;;;;;;;6.35;1.30;;;5.90;99.90;;;;;;5021427;28;20041;-57
2023/03/27 03:59:31;;;;;;;7.60;1.38;;;5.90;99.90;;;;;;5017302;28;20329;-57
2023/03/27 04:01:59;;;;;;;5.35;0.93;;;5.90;99.90;;;;;;5000019;28;20045;-58
2023/03/27 04:04:26;;;;;;;8.18;1.38;;;5.90;99.90;;;;;;5016971;28;20045;-57
2023/03/27 04:06:56;;;;;;;5.32;1.00;;;5.90;99.90;;;;;;5021712;28;20045;-58
2023/03/27 04:09:24;;;;;;;8.40;1.13;;;5.80;99.90;;;;;;5010076;28;20081;-58
2023/03/27 04:11:50;;;;;;;4.80;0.98;;;5.80;99.90;;;;;;5015263;28;20465;-58
2023/03/27 04:14:17;;;;;;;5.05;1.23;;;5.80;99.90;;;;;;5013464;28;20073;-58
2023/03/27 04:16:44;;;;;;;6.65;1.50;;;5.80;99.90;;;;;;5013907;28;20049;-58
2023/03/27 04:19:11;;;;;;;5.82;1.00;;;5.80;99.90;;;;;;5017875;28;20053;-57
2023/03/27 04:21:38;;;;;;;3.00;1.65;;;5.80;99.90;;;;;;5026787;28;20048;-58
2023/03/27 04:24:07;;;;;;;6.40;0.98;;;5.80;99.90;;;;;;5021439;28;20049;-57
2023/03/27 04:26:34;;;;;;;13.50;1.23;;;5.70;99.90;;;;;;5012565;28;20115;-57
2023/03/27 04:29:01;;;;;;;6.90;1.65;;;5.70;99.90;;;;;;4997817;28;20497;-58
2023/03/27 04:31:33;;;;;;;15.15;1.52;;;5.70;99.90;;;;;;5026975;28;20043;-61
2023/03/27 04:34:00;;;;;;;6.10;1.30;;;5.70;99.90;;;;;;5015182;28;20056;-58
2023/03/27 04:36:26;;;;;;;3.58;2.08;;;5.70;99.90;;;;;;5026975;28;20049;-55
2023/03/27 04:38:56;;;;;;;5.32;1.60;;;5.70;99.90;;;;;;5018197;28;20050;-59
2023/03/27 04:41:23;;;;;;;3.78;1.33;;;5.60;99.90;;;;;;5007430;28;20300;-58
2023/03/27 04:43:50;;;;;;;11.80;2.05;;;5.60;99.90;;;;;;5022093;28;20399;-59
2023/03/27 04:46:16;;;;;;;4.50;1.33;;;5.50;99.90;;;;;;5029298;28;20047;-58
2023/03/27 04:48:43;;;;;;;9.23;2.40;;;5.50;99.90;;;;;;5017027;28;20046;-56
2023/03/27 04:51:10;;;;;;;3.72;0.90;;;5.50;99.90;;;;;;5021525;28;20049;-58
2023/03/27 04:53:37;;;;;;;10.90;1.88;;;5.50;99.90;;;;;;5002173;28;20045;-58
2023/03/27 04:56:05;;;;;;;9.07;1.58;;;5.50;99.90;;;;;;5018532;28;20535;-57
2023/03/27 04:58:32;;;;;;;6.07;1.02;;;5.50;99.90;;;;;;5015488;28;20052;-58
2023/03/27 05:01:01;;;;;;;6.32;1.30;;;5.50;99.90;;;;;;5017298;28;20082;-58
2023/03/27 05:03:28;;;;;;;5.95;1.50;;;5.50;99.90;;;;;;5005378;28;20045;-57
2023/03/27 05:05:54;;;;;;;6.93;1.75;;;5.50;99.90;;;;;;5019781;28;20049;-57
2023/03/27 05:08:21;;;;;;;14.15;3.25;;;5.50;99.90;;;;;;4996623;28;20103;-58
2023/03/27 05:10:48;;;;;;;3.30;1.00;;;5.40;99.90;;;;;;5015976;28;20120;-58
2023/03/27 05:13:15;;;;;;;9.32;1.52;;;5.40;99.90;;;;;;5025324;28;20485;-61
2023/03/27 05:15:42;;;;;;;6.15;1.17;;;5.40;99.90;;;;;;5021144;28;20053;-56
2023/03/27 05:18:08;;;;;;;7.88;1.63;;;5.40;99.90;;;;;;5011321;28;20132;-57
2023/03/27 05:20:35;;;;;;;1.77;1.02;;;5.50;99.90;;;;;;5014169;28;20033;-56
2023/03/27 05:23:02;;;;;;;5.30;1.00;;;5.40;99.90;;;;;;5025442;28;20120;-57
2023/03/27 05:25:29;;;;;;;5.78;1.40;;;5.40;99.90;;;;;;5016188;28;20054;-58
2023/03/27 05:27:56;;;;;;;6.60;1.25;;;5.40;99.90;;;;;;5023525;28;20044;-57
2023/03/27 05:30:24;;;;;;;5.43;1.20;;;5.40;99.90;;;;;;5020742;28;20525;-58
2023/03/27 05:32:52;;;;;;;5.13;1.48;;;5.40;99.90;;;;;;5012587;28;20045;-58
2023/03/27 05:35:21;;;;;;;10.95;1.50;;;5.40;99.90;;;;;;5016425;28;20089;-56
2023/03/27 05:37:49;;;;;;;12.65;1.80;;;5.40;99.90;;;;;;5021055;28;20045;-58
2023/03/27 05:40:19;;;;;;;8.10;1.63;;;5.30;99.90;;;;;;5019102;28;20052;-58
2023/03/27 05:42:46;;;;;;;7.13;1.27;;;5.30;99.90;;;;;;5019516;28;20045;-58
2023/03/27 05:45:13;;;;;;;3.63;0.75;;;5.30;99.90;;;;;;5019556;28;20469;-59
2023/03/27 05:47:50;;;;;;;2.15;1.20;;;5.30;99.90;;;;;;5017536;28;20059;-58
2023/03/27 05:50:18;;;;;;;19.60;3.97;;;5.30;99.90;;;;;;5015346;28;20056;-57
2023/03/27 05:52:45;;;;;;;7.35;1.23;;;5.20;99.90;;;;;;5016570;28;20100;-58
2023/03/27 05:55:13;;;;;;;4.20;0.90;;;5.30;99.90;;;;;;5004430;28;20073;-57
2023/03/27 05:57:40;;;;;;;9.27;1.52;;;5.20;99.90;;;;;;5001765;28;20085;-58
2023/03/27 06:00:10;;;;;;;10.05;3.22;;;5.20;99.90;;;;;;5011703;28;20053;-59
2023/03/27 06:02:38;;;;;;;11.75;1.83;;;5.20;99.90;;;;;;5015392;28;20122;-57
2023/03/27 06:05:15;;;;;;;4.65;1.17;;;5.20;99.90;;;;;;5023334;28;20046;-58
2023/03/27 06:07:42;;;;;;;8.63;1.48;;;5.20;99.90;;;;;;5019869;28;20104;-57
2023/03/27 06:10:10;;;;;;;16.23;1.95;;;5.10;99.90;;;;;;5009769;28;20128;-58
2023/03/27 06:12:40;;;;;;;10.95;1.50;;;5.10;99.90;;;;;;4998892;28;20054;-57
2023/03/27 06:15:08;;;;;;;2.22;1.08;;;5.10;99.90;;;;;;5023677;28;20156;-57
2023/03/27 06:17:35;;;;;;;3.53;1.27;;;5.10;99.90;;;;;;5003468;28;20416;-57
2023/03/27 06:20:09;;;;;;;7.10;1.10;;;5.10;99.90;;;;;;5024462;28;20045;-59
2023/03/27 06:22:46;;;;;;;16.17;1.88;;;5.10;99.90;;;;;;5017629;28;20053;-57
2023/03/27 06:25:14;;;;;;;8.77;1.80;;;5.00;99.90;;;;;;5009660;28;20420;-58
2023/03/27 06:27:43;;;;;;;11.35;1.77;;;5.10;99.90;;;;;;4995526;28;20157;-59
2023/03/27 06:30:11;;;;;;;8.23;1.45;;;5.10;99.90;;;;;;5023806;28;20048;-60
2023/03/27 06:32:45;;;;;;;10.50;1.45;;;5.00;99.90;;;;;;4652223;28;9999752;-59
2023/03/27 06:35:13;;;;;;;3.45;1.45;;;5.00;99.90;;;;;;5020571;28;20056;-58
2023/03/27 06:37:41;;;;;;;3.00;1.15;;;5.00;99.90;;;;;;5017042;28;20050;-59
2023/03/27 06:40:09;;;;;;;6.97;2.47;;;5.00;99.90;;;;;;4991865;28;20049;-58
2023/03/27 06:42:37;;;;;;;6.53;1.52;;;5.10;99.90;;;;;;5015817;28;20048;-59
2023/03/27 06:45:04;;;;;;;16.73;1.70;;;5.10;99.90;;;;;;5011672;28;20129;-57
2023/03/27 06:47:31;;;;;;;9.02;1.70;;;5.10;99.90;;;;;;5017110;28;20049;-56
2023/03/27 06:50:06;;;;;;;11.45;1.88;;;5.20;99.90;;;;;;5004427;28;20076;-63
2023/03/27 06:52:33;;;;;;;4.72;1.48;;;5.20;99.90;;;;;;5020101;28;20132;-56
2023/03/27 06:54:59;;;;;;;10.13;2.00;;;5.20;99.90;;;;;;5019153;28;20046;-57
2023/03/27 06:57:26;;;;;;;7.80;1.10;;;5.20;99.90;;;;;;5015511;28;20077;-57
2023/03/27 06:59:53;;;;;;;9.27;1.80;;;5.30;99.90;;;;;;5018097;28;20132;-58
2023/03/27 07:02:20;;;;;;;8.73;2.10;;;5.30;99.90;;;;;;5023848;28;20116;-56
2023/03/27 07:04:46;;;;;;;7.43;1.13;;;5.30;99.90;;;;;;5021718;28;20104;-58
2023/03/27 07:07:27;;;;;;;6.03;1.73;;;5.40;99.90;;;;;;5017615;28;20104;-59
2023/03/27 07:09:54;;;;;;;9.50;2.15;;;5.50;99.90;;;;;;5018416;28;20559;-55
2023/03/27 07:12:20;;;;;;;7.70;1.52;;;5.50;99.90;;;;;;5026709;28;20045;-55
2023/03/27 07:14:48;;;;;;;14.80;2.55;;;5.50;99.90;;;;;;5022932;28;20140;-61
2023/03/27 07:17:14;;;;;;;11.23;2.20;;;5.50;99.90;;;;;;5013243;28;20046;-56
2023/03/27 07:19:41;;;;;;;10.85;3.55;;;5.60;99.90;;;;;;5025185;28;20057;-57
2023/03/27 07:22:08;;;;;;;10.90;2.33;;;5.60;99.90;;;;;;5025476;28;20129;-57
2023/03/27 07:24:34;;;;;;;4.63;1.50;;;5.60;99.90;;;;;;5015656;28;20045;-57
2023/03/27 07:27:01;;;;;;;8.98;2.42;;;5.60;99.90;;;;;;5026474;28;20054;-58
2023/03/27 07:29:28;;;;;;;10.68;1.80;;;5.70;99.90;;;;;;5022820;28;20081;-59
2023/03/27 07:31:55;;;;;;;17.60;2.35;;;5.70;99.90;;;;;;5014702;28;20049;-57
2023/03/27 07:34:28;;;;;;;9.75;1.63;;;5.70;99.90;;;;;;5016822;28;20038;-57
2023/03/27 07:36:58;;;;;;;14.90;2.88;;;5.80;99.90;;;;;;5023718;28;20050;-59
2023/03/27 07:39:25;;;;;;;6.90;1.52;;;5.80;99.90;;;;;;5018635;28;20050;-59
2023/03/27 07:41:51;;;;;;;7.28;1.42;;;5.80;99.90;;;;;;5017551;28;20056;-59
2023/03/27 07:44:18;;;;;;;12.60;1.80;;;5.90;99.90;;;;;;5017970;28;20037;-59
2023/03/27 07:46:45;;;;;;;15.02;1.65;;;6.00;99.90;;;;;;5019977;28;20124;-59
2023/03/27 07:49:12;;;;;;;7.60;1.77;;;6.00;99.90;;;;;;5022109;28;20072;-56
2023/03/27 07:51:39;;;;;;;11.93;1.88;;;6.10;99.90;;;;;;5020777;28;20485;-59
2023/03/27 07:54:06;;;;;;;13.63;1.55;;;6.00;99.90;;;;;;5013537;28;20158;-59
2023/03/27 07:56:33;;;;;;;10.35;1.90;;;6.00;99.90;;;;;;5018186;28;20037;-58
2023/03/27 07:59:00;;;;;;;8.80;1.73;;;6.10;99.90;;;;;;5023837;28;20060;-56
2023/03/27 08:01:27;;;;;;;10.88;2.30;;;6.10;99.90;;;;;;5016127;28;20576;-57
2023/03/27 08:03:55;;;;;;;8.98;1.48;;;6.10;99.90;;;;;;5025510;28;20049;-58
2023/03/27 08:06:22;;;;;;;7.25;2.53;;;6.10;99.90;;;;;;5004901;28;20049;-56
2023/03/27 08:08:49;;;;;;;13.07;2.33;;;6.10;99.90;;;;;;5012020;28;20069;-57
2023/03/27 08:11:17;;;;;;;14.65;2.40;;;6.10;99.90;;;;;;5014978;28;20057;-57
2023/03/27 08:13:57;;;;;;;7.13;1.65;;;6.20;99.90;;;;;;5011722;28;20045;-58
2023/03/27 08:16:27;;;;;;;12.02;2.72;;;6.20;99.90;;;;;;5015381;28;20045;-60
2023/03/27 08:18:54;;;;;;;17.38;2.78;;;6.30;99.90;;;;;;5026645;28;20412;-58
2023/03/27 08:21:22;;;;;;;10.30;1.75;;;6.30;99.90;;;;;;5020892;28;20132;-57
2023/03/27 08:23:48;;;;;;;9.57;2.10;;;6.30;99.90;;;;;;5013371;28;20054;-59
2023/03/27 08:26:15;;;;;;;8.10;2.10;;;6.30;99.90;;;;;;5016380;28;20052;-57
2023/03/27 08:28:42;;;;;;;10.05;2.03;;;6.40;99.90;;;;;;5023688;28;20049;-58
2023/03/27 08:31:11;;;;;;;10.63;3.10;;;6.50;99.90;;;;;;5002892;28;20049;-59
2023/03/27 08:33:38;;;;;;;4.15;1.50;;;6.50;99.90;;;;;;5016315;28;20054;-60
2023/03/27 08:36:05;;;;;;;14.88;2.03;;;6.50;99.90;;;;;;5016882;28;20092;-58
2023/03/27 08:38:38;;;;;;;9.55;1.45;;;6.50;99.90;;;;;;5002617;28;20111;-58
2023/03/27 08:41:05;;;;;;;8.55;1.88;;;6.50;99.90;;;;;;5002797;28;20042;-58
2023/03/27 08:43:36;;;;;;;11.23;2.08;;;6.50;99.90;;;;;;5018059;28;20059;-59
2023/03/27 08:46:12;;;;;;;7.30;1.50;;;6.60;99.90;;;;;;4639829;28;10000253;-58
2023/03/27 08:48:46;;;;;;;6.47;1.75;;;6.60;99.90;;;;;;4983239;28;20049;-59
2023/03/27 08:51:15;;;;;;;;;;;6.60;99.90;;;;;;4988544;28;20050;-59
2023/03/27 08:54:01;;;;;;;6.20;1.63;;;6.60;99.90;;;;;;5002337;28;20027;-59
2023/03/27 08:56:28;;;;;;;8.68;1.52;;;6.70;99.90;;;;;;4983378;28;20132;-58
2023/03/27 08:58:55;;;;;;;12.93;1.80;;;6.60;99.90;;;;;;5017095;28;20045;-58
2023/03/27 09:01:35;;;;;;;11.15;1.75;;;6.70;99.90;;;;;;5022757;28;20053;-59
2023/03/27 09:04:04;;;;;;;7.18;1.60;;;6.80;99.90;;;;;;5003050;28;20068;-59
2023/03/27 09:06:38;;;;;;;4.78;1.80;;;6.90;99.90;;;;;;4995749;28;20045;-56
2023/03/27 09:09:07;;;;;;;;;;;6.90;99.90;;;;;;5017291;28;20503;-57
2023/03/27 09:11:59;;;;;;;8.52;1.85;;;6.80;99.90;;;;;;5023060;28;19932;-58
2023/03/27 09:14:40;;;;;;;7.97;2.63;;;6.90;99.90;;;;;;5001781;28;20040;-59
2023/03/27 09:17:31;;;;;;;3.72;1.75;;;7.00;99.90;;;;;;4997277;28;20128;-57
2023/03/27 09:20:05;;;;;;;7.07;2.38;;;7.00;99.90;;;;;;5004629;28;20111;-57
2023/03/27 09:22:43;;;;;;;10.63;1.92;;;7.30;99.90;;;;;;4986551;28;20120;-58
2023/03/27 09:25:52;;;;;;;14.90;2.03;;;7.70;99.90;;;;;;5017097;28;20078;-59
2023/03/27 09:28:36;;;;;;;9.68;1.98;;;8.10;99.90;;;;;;5002499;28;20448;-58
2023/03/27 09:31:30;;;;;;;29.65;2.30;;;8.60;99.90;;;;;;5006158;28;20042;-59
2023/03/27 09:34:00;;;;;;;9.27;1.65;;;8.80;99.90;;;;;;5021754;28;20057;-58
2023/03/27 09:36:27;;;;;;;6.65;1.42;;;9.10;99.90;;;;;;4992657;28;20129;-57
2023/03/27 09:38:57;;;;;;;3.75;1.35;;;9.20;99.90;;;;;;5014438;28;20056;-60
2023/03/27 09:41:30;;;;;;;4.80;1.85;;;9.20;99.90;;;;;;5006454;28;20046;-59
2023/03/27 09:44:09;;;;;;;7.10;1.33;;;9.50;99.90;;;;;;4980357;28;20485;-60
2023/03/27 09:46:39;;;;;;;11.02;1.55;;;9.80;99.90;;;;;;5006013;28;20088;-59
2023/03/27 09:49:16;;;;;;;20.25;1.88;;;10.10;99.90;;;;;;5002743;28;20076;-57
2023/03/27 09:51:46;;;;;;;6.03;1.33;;;10.20;99.90;;;;;;5012082;28;20056;-60
2023/03/27 09:54:16;;;;;;;7.25;1.85;;;10.40;99.90;;;;;;5014265;28;20482;-58
2023/03/27 09:56:47;;;;;;;3.00;0.77;;;10.30;99.90;;;;;;5005104;28;20087;-58
2023/03/27 09:59:32;;;;;;;2.20;1.27;;;9.90;99.90;;;;;;5002450;28;20046;-60
2023/03/27 10:02:07;;;;;;;8.20;2.75;;;9.50;98.90;;;;;;4995028;28;20363;-57
2023/03/27 10:04:34;;;;;;;10.50;1.60;;;9.20;99.90;;;;;;5003103;28;20515;-60
2023/03/27 10:07:06;;;;;;;14.02;1.50;;;8.80;99.90;;;;;;4995073;28;20593;-59
2023/03/27 10:09:34;;;;;;;8.63;1.05;;;8.70;99.90;;;;;;5019369;28;20048;-57
2023/03/27 10:12:03;;;;;;;8.77;3.00;;;8.60;99.90;;;;;;5013619;28;20071;-58
2023/03/27 10:14:36;;;;;;;6.35;0.80;;;8.40;99.60;;;;;;5015467;28;20049;-59
2023/03/27 10:17:03;;;;;;;7.82;1.20;;;8.20;99.80;;;;;;5002277;28;20076;-58
2023/03/27 10:19:38;;;;;;;9.30;1.58;;;8.10;99.90;;;;;;5017903;28;20081;-58
2023/03/27 10:22:28;;;;;;;11.30;1.55;;;8.20;99.90;;;;;;4997912;28;20081;-57
2023/03/27 10:24:57;;;;;;;11.07;1.45;;;8.30;99.90;;;;;;4997401;28;20096;-58
2023/03/27 10:27:32;;;;;;;7.78;0.95;;;8.40;99.90;;;;;;5002502;28;20128;-57
2023/03/27 10:29:59;;;;;;;13.35;1.45;;;8.40;99.90;;;;;;5017618;28;20057;-58
2023/03/27 10:32:45;;;;;;;5.32;1.08;;;8.40;99.90;;;;;;4997641;28;20076;-58
2023/03/27 10:35:22;;;;;;;6.53;1.10;;;8.50;98.00;;;;;;5015137;28;20084;-59
2023/03/27 10:37:50;;;;;;;4.43;1.60;;;8.40;99.30;;;;;;5019994;28;20133;-58
2023/03/27 10:40:21;;;;;;;6.55;1.25;;;8.40;99.80;;;;;;5000400;28;20046;-58
2023/03/27 10:42:47;;;;;;;5.57;1.35;;;8.60;99.90;;;;;;4998086;28;20054;-58
2023/03/27 10:45:18;;;;;;;10.52;1.48;;;8.50;99.90;;;;;;4997754;28;20140;-57
2023/03/27 10:47:47;;;;;;;5.05;1.20;;;8.50;99.90;;;;;;4999437;28;20128;-57
2023/03/27 10:50:32;;;;;;;14.23;1.38;;;8.70;99.90;;;;;;5001716;28;20049;-56
2023/03/27 10:53:13;;;;;;;4.53;0.80;;;8.70;98.80;;;;;;5009574;28;20429;-58
2023/03/27 10:55:50;;;;;;;12.65;2.33;;;8.80;96.80;;;;;;5018235;28;20054;-58
2023/03/27 10:58:25;;;;;;;3.65;0.98;;;8.80;99.40;;;;;;5015983;28;20440;-57
2023/03/27 11:01:11;;;;;;;3.78;0.80;;;8.80;90.80;;;;;;4981234;28;20052;-58
2023/03/27 11:03:46;;;;;;;2.70;0.68;;;8.80;94.00;;;;;;5002123;28;20152;-59
2023/03/27 11:06:15;;;;;;;2.00;0.52;;;8.90;91.30;;;;;;5017923;28;20045;-59
2023/03/27 11:09:04;;;;;;;2.30;0.93;;;9.10;91.10;;;;;;4981835;28;20053;-57
2023/03/27 11:12:08;;;;;;;4.15;0.88;;;9.10;80.10;;;;;;4999305;28;20042;-58
2023/03/27 11:14:47;;;;;;;2.60;0.88;;;9.30;78.70;;;;;;4982460;28;20133;-57
2023/03/27 11:17:15;;;;;;;7.80;0.80;;;9.50;85.40;;;;;;5002837;28;20136;-57
2023/03/27 11:19:45;;;;;;;4.72;1.15;;;9.50;94.10;;;;;;5000044;28;20057;-58
2023/03/27 11:22:14;;;;;;;1.10;0.43;;;9.60;90.10;;;;;;4992831;28;20129;-57
2023/03/27 11:24:55;;;;;;;9.50;1.10;;;9.60;91.40;;;;;;5000700;28;20141;-57
2023/03/27 11:27:37;;;;;;;3.88;0.77;;;9.70;88.20;;;;;;4962636;28;20074;-57
2023/03/27 11:30:04;;;;;;;1.50;0.60;;;9.80;91.50;;;;;;5002784;28;20233;-57
2023/03/27 11:32:47;;;;;;;4.68;1.48;;;9.90;92.60;;;;;;5000500;28;20049;-57
2023/03/27 11:35:20;;;;;;;1.00;0.73;;;10.00;85.80;;;;;;4993115;28;20060;-57
2023/03/27 11:37:51;;;;;;;4.43;0.90;;;10.00;87.70;;;;;;4995838;28;20081;-58
2023/03/27 11:40:28;;;;;;;4.53;0.73;;;10.10;83.80;;;;;;5003998;28;20042;-59
2023/03/27 11:42:55;;;;;;;2.95;0.88;;;9.90;81.40;;;;;;5001132;28;20497;-59
2023/03/27 11:45:27;;;;;;;4.13;1.15;;;9.90;88.40;;;;;;4994302;28;20137;-60
2023/03/27 11:48:28;;;;;;;2.72;0.80;;;9.90;90.40;;;;;;4997987;28;20046;-60
2023/03/27 11:51:19;;;;;;;3.78;0.63;;;9.80;76.60;;;;;;5006860;28;20133;-59
2023/03/27 11:53:58;;;;;;;4.57;0.73;;;9.70;76.20;;;;;;4995291;28;20046;-59
2023/03/27 11:56:48;;;;;;;10.38;1.17;;;9.70;83.90;;;;;;4993498;28;20045;-57
2023/03/27 11:59:27;;;;;;;5.15;0.77;;;9.60;75.40;;;;;;5000780;28;20081;-58
2023/03/27 12:02:18;;;;;;;8.73;0.88;;;9.70;81.80;;;;;;4991132;28;20317;-58
2023/03/27 12:05:00;;;;;;;17.92;4.35;;;9.80;81.00;;;;;;4998220;28;20054;-58
2023/03/27 12:07:48;;;;;;;2.22;0.77;;;9.90;83.60;;;;;;5003131;28;20096;-57
2023/03/27 12:10:32;;;;;;;5.40;0.88;;;9.90;78.90;;;;;;5001357;28;20050;-57
2023/03/27 12:13:37;;;;;;;5.75;2.35;;;9.70;76.90;;;;;;4995380;28;20081;-58
2023/03/27 12:16:34;;;;;;;7.50;1.23;;;9.70;81.40;;;;;;5002776;28;20128;-58
2023/03/27 12:19:21;;;;;;;4.93;0.75;;;9.80;80.60;;;;;;5001706;28;20046;-58
2023/03/27 12:22:30;;;;;;;1.42;0.70;;;10.00;75.60;;;;;;4991034;28;20076;-57
2023/03/27 12:25:21;;;;;;;3.47;1.27;;;9.90;70.90;;;;;;4995610;28;20350;-55
2023/03/27 12:27:54;;;;;;;3.33;0.95;;;9.70;73.50;;;;;;5004322;28;20573;-56
2023/03/27 12:30:39;;;;;;;13.65;1.02;;;9.70;77.20;;;;;;5001863;28;20082;-58
2023/03/27 12:33:21;;;;;;;4.22;1.13;;;9.90;74.60;;;;;;4992816;28;20046;-58
2023/03/27 12:35:49;;;;;;;3.25;0.80;;;10.00;72.80;;;;;;5002826;28;20057;-56
2023/03/27 12:38:29;;;;;;;3.40;0.90;;;9.90;80.40;;;;;;4975569;28;20097;-58
2023/03/27 12:41:09;;;;;;;7.60;1.20;;;9.90;74.40;;;;;;5002441;28;20465;-57
2023/03/27 12:43:39;;;;;;;3.40;1.00;;;10.10;82.00;;;;;;4993136;28;20050;-60
2023/03/27 12:46:09;;;;;;;5.60;1.15;;;10.10;83.10;;;;;;4995908;28;20429;-58
2023/03/27 12:49:04;;;;;;;7.15;1.05;;;10.10;83.60;;;;;;5004811;28;20532;-57
2023/03/27 12:51:41;;;;;;;5.18;1.60;;;10.10;76.00;;;;;;5021476;28;20073;-56
2023/03/27 12:54:30;;;;;;;3.83;1.00;;;10.20;82.90;;;;;;5001721;28;20068;-56
2023/03/27 12:57:19;;;;;;;3.10;0.75;;;10.20;76.90;;;;;;4997482;28;20412;-56
2023/03/27 12:59:52;;;;;;;15.65;2.75;;;10.00;70.50;;;;;;4998363;28;20058;-58
2023/03/27 13:02:26;;;;;;;2.67;0.98;;;10.00;80.30;;;;;;4998808;28;20567;-58
2023/03/27 13:05:00;;;;;;;3.53;0.88;;;10.10;78.80;;;;;;4995402;28;20054;-58
2023/03/27 13:07:37;;;;;;;5.05;1.35;;;10.20;77.80;;;;;;4998935;28;20045;-57
2023/03/27 13:10:21;;;;;;;7.38;1.33;;;10.10;72.90;;;;;;4998004;28;20046;-60
2023/03/27 13:13:01;;;;;;;4.05;0.88;;;9.90;69.90;;;;;;4995931;28;20108;-58
2023/03/27 13:15:54;;;;;;;4.25;1.35;;;9.80;77.60;;;;;;4996873;28;20129;-58
2023/03/27 13:18:27;;;;;;;2.83;1.08;;;9.90;79.50;;;;;;5002068;28;20053;-57
2023/03/27 13:21:11;;;;;;;11.27;1.23;;;10.00;78.90;;;;;;4999030;28;20044;-60
2023/03/27 13:24:16;;;;;;;2.50;0.80;;;10.30;77.20;;;;;;5005675;28;20145;-58